Time;durP1;ratioP1;P1;durP2;ratioP2;P2;SDS_P1;SDS_P2;PMS_P1;PMS_P2;Temp;Humidity;BMP_temperature;BMP_pressure;BME280_temperature;BME280_humidity;BME280_pressure;Samples;Min_cycle;Max_cycle;Signal;HPM_P1;HPM_P2
2021/04/09 00:00:27;;;;;;;9.80;6.68;;;2.30;1.00;;;;;;5011553;28;20048;-71
2021/04/09 00:02:57;;;;;;;9.80;5.53;;;2.30;1.00;;;;;;5010810;28;20524;-70
2021/04/09 00:05:25;;;;;;;13.15;6.20;;;2.20;1.00;;;;;;5015984;28;20112;-71
2021/04/09 00:07:54;;;;;;;14.15;6.88;;;2.20;1.00;;;;;;5010047;28;20050;-71
2021/04/09 00:10:22;;;;;;;11.50;6.82;;;2.10;1.00;;;;;;5013757;28;20414;-71
2021/04/09 00:12:50;;;;;;;13.48;7.20;;;2.10;1.00;;;;;;5010941;28;20046;-71
2021/04/09 00:15:18;;;;;;;16.77;7.07;;;2.10;1.00;;;;;;5014554;28;20049;-71
2021/04/09 00:17:45;;;;;;;12.52;7.20;;;2.20;1.00;;;;;;5011442;28;20057;-71
2021/04/09 00:20:15;;;;;;;13.30;7.57;;;2.10;1.00;;;;;;5012409;28;20054;-71
2021/04/09 00:22:43;;;;;;;14.23;7.25;;;2.00;1.00;;;;;;5013363;28;20063;-71
2021/04/09 00:25:11;;;;;;;12.50;7.85;;;1.80;1.00;;;;;;5012119;28;20042;-71
2021/04/09 00:27:38;;;;;;;13.05;7.30;;;1.80;1.00;;;;;;5012726;28;20061;-71
2021/04/09 00:30:08;;;;;;;14.30;7.80;;;1.70;1.00;;;;;;5013255;28;20064;-71
2021/04/09 00:32:35;;;;;;;12.75;7.70;;;1.80;1.00;;;;;;5008651;28;20065;-71
2021/04/09 00:35:03;;;;;;;11.82;7.68;;;1.70;1.00;;;;;;5010701;28;20045;-72
2021/04/09 00:37:30;;;;;;;14.25;8.15;;;1.60;1.00;;;;;;5009170;28;20052;-72
2021/04/09 00:39:57;;;;;;;13.23;7.78;;;1.60;1.00;;;;;;5009415;28;20069;-72
2021/04/09 00:42:24;;;;;;;16.17;8.77;;;1.70;1.00;;;;;;5011773;28;20046;-71
2021/04/09 00:44:51;;;;;;;14.80;8.48;;;1.80;1.00;;;;;;5016156;28;20057;-71
2021/04/09 00:47:18;;;;;;;16.10;8.73;;;1.70;1.00;;;;;;5009840;28;20125;-71
2021/04/09 00:49:45;;;;;;;13.73;8.55;;;1.60;1.00;;;;;;5011996;28;20046;-71
2021/04/09 00:52:12;;;;;;;14.43;8.35;;;1.60;1.00;;;;;;5013828;28;20053;-71
2021/04/09 00:54:40;;;;;;;16.48;9.15;;;1.60;1.00;;;;;;5012942;28;20054;-71
2021/04/09 00:57:07;;;;;;;14.98;8.50;;;1.70;1.00;;;;;;5011928;28;20057;-71
2021/04/09 00:59:35;;;;;;;18.05;9.50;;;1.60;1.00;;;;;;5007723;28;20070;-70
2021/04/09 01:02:02;;;;;;;15.30;8.82;;;1.60;1.00;;;;;;5008458;28;20089;-71
2021/04/09 01:04:31;;;;;;;15.48;8.70;;;1.70;1.00;;;;;;5009417;28;20061;-72
2021/04/09 01:06:58;;;;;;;18.00;9.70;;;1.50;1.00;;;;;;5008985;28;20054;-71
2021/04/09 01:09:25;;;;;;;14.10;9.23;;;1.50;1.00;;;;;;5011880;28;20094;-72
2021/04/09 01:11:53;;;;;;;16.58;9.15;;;1.60;1.00;;;;;;5011974;28;20046;-71
2021/04/09 01:14:19;;;;;;;16.70;9.88;;;1.70;1.00;;;;;;5012878;28;20053;-70
2021/04/09 01:16:50;;;;;;;14.27;8.98;;;1.60;1.00;;;;;;5009394;28;20045;-71
2021/04/09 01:20:06;;;;;;;16.77;9.43;;;1.70;1.00;;;;;;5009513;28;20116;-71
2021/04/09 01:22:41;;;;;;;13.35;8.95;;;1.60;1.00;;;;;;4917635;29;20056;-71
2021/04/09 01:25:27;;;;;;;15.82;9.45;;;1.60;1.00;;;;;;5006274;28;20419;-71
2021/04/09 01:28:05;;;;;;;15.82;9.80;;;1.70;1.00;;;;;;5005262;28;20765;-72
2021/04/09 01:31:22;;;;;;;15.70;9.70;;;1.60;1.00;;;;;;5012878;28;20042;-71
2021/04/09 01:33:52;;;;;;;17.17;10.15;;;1.60;1.00;;;;;;5009684;28;20060;-71
2021/04/09 01:36:21;;;;;;;15.10;9.60;;;1.70;1.00;;;;;;5010916;28;20042;-70
2021/04/09 01:38:55;;;;;;;18.73;9.30;;;1.60;1.00;;;;;;5012010;28;20046;-71
2021/04/09 01:41:23;;;;;;;14.30;8.65;;;1.70;1.00;;;;;;5012013;28;20046;-71
2021/04/09 01:43:51;;;;;;;15.93;9.20;;;1.80;1.00;;;;;;5009077;28;20057;-72
2021/04/09 01:46:19;;;;;;;20.48;9.23;;;1.80;1.00;;;;;;5011521;28;20492;-72
2021/04/09 01:48:48;;;;;;;15.25;8.00;;;1.70;1.00;;;;;;5008543;28;20412;-71
2021/04/09 01:51:19;;;;;;;17.75;8.65;;;1.70;1.00;;;;;;5012373;28;20041;-71
2021/04/09 01:53:47;;;;;;;15.10;8.30;;;1.70;1.00;;;;;;5009131;28;20080;-72
2021/04/09 01:56:17;;;;;;;17.25;8.82;;;1.70;1.00;;;;;;5013894;28;20648;-72
2021/04/09 01:58:44;;;;;;;15.07;9.00;;;1.70;1.00;;;;;;5005898;28;20057;-72
2021/04/09 02:01:14;;;;;;;16.65;8.30;;;1.70;1.00;;;;;;5010890;28;20055;-73
2021/04/09 02:03:43;;;;;;;15.80;8.65;;;1.70;1.00;;;;;;5010383;28;20049;-73
2021/04/09 02:06:14;;;;;;;14.45;8.68;;;1.70;1.00;;;;;;5009363;28;20614;-72
2021/04/09 02:08:41;;;;;;;13.35;8.38;;;1.60;1.00;;;;;;5006815;28;20054;-72
2021/04/09 02:11:08;;;;;;;16.55;8.85;;;1.60;1.00;;;;;;5011635;28;20555;-73
2021/04/09 02:13:36;;;;;;;17.38;8.80;;;1.50;1.00;;;;;;5010689;28;20099;-71
2021/04/09 02:16:05;;;;;;;14.63;8.45;;;1.50;1.00;;;;;;5010671;28;20403;-71
2021/04/09 02:18:32;;;;;;;15.35;9.15;;;1.50;1.00;;;;;;5006781;28;20057;-71
2021/04/09 02:21:00;;;;;;;14.25;8.40;;;1.60;1.00;;;;;;5011428;28;20503;-71
2021/04/09 02:23:28;;;;;;;13.45;8.75;;;1.70;1.00;;;;;;5016299;28;20053;-71
2021/04/09 02:25:56;;;;;;;17.63;8.38;;;1.70;1.00;;;;;;5008445;28;20045;-71
2021/04/09 02:28:24;;;;;;;19.27;8.82;;;1.70;1.00;;;;;;5006709;28;20153;-71
2021/04/09 02:31:03;;;;;;;16.85;9.23;;;1.60;1.00;;;;;;5013545;28;20049;-71
2021/04/09 02:33:30;;;;;;;16.48;9.10;;;1.50;1.00;;;;;;5008496;28;20072;-71
2021/04/09 02:35:57;;;;;;;18.45;9.43;;;1.50;1.00;;;;;;5009765;28;20057;-70
2021/04/09 02:38:27;;;;;;;15.65;10.07;;;1.50;1.00;;;;;;5008810;28;20504;-70
2021/04/09 02:40:57;;;;;;;18.73;9.48;;;1.40;1.00;;;;;;5011994;28;20492;-71
2021/04/09 02:43:23;;;;;;;16.05;9.48;;;1.40;1.00;;;;;;5009136;28;20507;-72
2021/04/09 02:45:50;;;;;;;16.13;10.05;;;1.40;1.00;;;;;;5009356;28;20064;-71
2021/04/09 02:48:19;;;;;;;17.05;10.32;;;1.40;1.00;;;;;;5005546;28;20061;-72
2021/04/09 02:50:48;;;;;;;18.65;10.43;;;1.40;1.00;;;;;;5011809;28;20042;-72
2021/04/09 02:53:19;;;;;;;18.83;10.35;;;1.30;1.00;;;;;;5007632;28;20057;-71
2021/04/09 02:55:48;;;;;;;16.30;9.93;;;1.40;1.00;;;;;;5016867;28;20053;-71
2021/04/09 02:58:18;;;;;;;16.60;9.93;;;1.40;1.00;;;;;;5011175;28;20091;-72
2021/04/09 03:00:48;;;;;;;18.10;10.52;;;1.40;1.00;;;;;;5015590;28;20137;-72
2021/04/09 03:03:17;;;;;;;20.15;10.60;;;1.30;1.00;;;;;;5010784;28;20050;-72
2021/04/09 03:05:45;;;;;;;16.75;9.57;;;1.30;1.00;;;;;;5013751;28;20050;-70
2021/04/09 03:08:13;;;;;;;15.82;10.63;;;1.20;1.00;;;;;;5009239;28;20045;-71
2021/04/09 03:10:40;;;;;;;15.73;9.25;;;1.10;1.00;;;;;;5013454;28;20054;-71
2021/04/09 03:13:07;;;;;;;15.93;8.88;;;1.10;1.00;;;;;;5010217;28;20068;-71
2021/04/09 03:15:40;;;;;;;16.20;9.65;;;1.10;1.00;;;;;;5012960;28;20054;-72
2021/04/09 03:18:10;;;;;;;15.50;9.40;;;1.20;1.00;;;;;;5008574;28;20046;-71
2021/04/09 03:20:37;;;;;;;15.50;8.93;;;1.20;1.00;;;;;;5013070;28;20073;-72
2021/04/09 03:23:05;;;;;;;18.40;9.07;;;1.20;1.00;;;;;;5013345;28;20057;-72
2021/04/09 03:25:32;;;;;;;14.48;9.15;;;1.10;1.00;;;;;;5014201;28;20053;-72
2021/04/09 03:27:59;;;;;;;19.33;8.23;;;1.10;1.00;;;;;;5008546;28;20050;-71
2021/04/09 03:30:26;;;;;;;14.68;8.75;;;1.00;1.00;;;;;;5013156;28;20041;-71
2021/04/09 03:32:54;;;;;;;17.23;9.57;;;1.00;1.00;;;;;;5011024;28;20133;-72
2021/04/09 03:35:21;;;;;;;22.73;8.80;;;1.00;1.00;;;;;;5011682;28;20050;-73
2021/04/09 03:37:49;;;;;;;13.80;8.68;;;1.00;1.00;;;;;;5012717;28;20061;-72
2021/04/09 03:40:17;;;;;;;13.55;9.07;;;1.00;1.00;;;;;;5012054;28;20042;-71
2021/04/09 03:42:45;;;;;;;17.25;9.50;;;1.00;1.00;;;;;;5012073;28;20049;-72
2021/04/09 03:45:12;;;;;;;20.30;11.10;;;0.90;1.00;;;;;;5020739;28;20045;-72
2021/04/09 03:47:39;;;;;;;25.27;11.00;;;0.70;1.00;;;;;;5010670;28;20196;-71
2021/04/09 03:50:09;;;;;;;20.92;11.88;;;0.50;1.00;;;;;;5013934;28;20065;-72
2021/04/09 03:52:37;;;;;;;25.48;12.63;;;0.50;1.40;;;;;;5011495;28;20061;-72
2021/04/09 03:55:06;;;;;;;18.77;10.73;;;0.40;1.90;;;;;;5018680;28;20052;-72
2021/04/09 03:57:33;;;;;;;20.45;10.15;;;0.40;2.40;;;;;;5011991;28;20046;-71
2021/04/09 04:00:00;;;;;;;20.75;9.90;;;0.40;2.20;;;;;;5015538;28;20503;-71
2021/04/09 04:02:26;;;;;;;20.50;10.10;;;0.40;2.40;;;;;;5013009;28;20416;-70
2021/04/09 04:04:53;;;;;;;16.25;9.30;;;0.40;2.90;;;;;;5016996;28;20511;-70
2021/04/09 04:07:21;;;;;;;17.38;9.02;;;0.40;2.80;;;;;;5013024;28;20049;-71
2021/04/09 04:09:48;;;;;;;16.38;8.00;;;0.60;1.10;;;;;;5015310;28;20046;-71
2021/04/09 04:12:16;;;;;;;13.38;7.93;;;0.70;1.00;;;;;;5013472;28;20607;-71
2021/04/09 04:14:43;;;;;;;12.77;7.72;;;0.70;1.00;;;;;;5016001;28;20500;-70
2021/04/09 04:17:09;;;;;;;12.18;7.78;;;0.90;1.00;;;;;;5010709;28;20046;-72
2021/04/09 04:19:36;;;;;;;17.80;8.13;;;1.00;1.00;;;;;;5012183;28;20054;-71
2021/04/09 04:22:03;;;;;;;17.25;8.27;;;1.00;1.00;;;;;;5013403;28;20149;-71
2021/04/09 04:24:31;;;;;;;12.75;8.23;;;1.10;1.00;;;;;;5017219;28;20091;-72
2021/04/09 04:26:58;;;;;;;15.77;8.50;;;1.10;1.00;;;;;;5014430;28;20552;-72
2021/04/09 04:29:25;;;;;;;21.73;7.40;;;1.10;1.00;;;;;;5014801;28;20499;-73
2021/04/09 04:31:52;;;;;;;15.10;7.45;;;1.00;1.00;;;;;;5011968;28;20038;-72
2021/04/09 04:34:19;;;;;;;11.85;7.30;;;0.90;1.00;;;;;;5014074;28;20063;-72
2021/04/09 04:36:46;;;;;;;13.18;7.93;;;1.00;1.00;;;;;;5014846;28;20096;-70
2021/04/09 04:39:13;;;;;;;14.68;8.30;;;0.90;1.00;;;;;;5016022;28;20048;-70
2021/04/09 04:41:43;;;;;;;15.50;7.40;;;0.90;1.00;;;;;;5018885;28;20152;-72
2021/04/09 04:44:10;;;;;;;14.23;7.93;;;0.90;1.00;;;;;;5012915;28;20046;-72
2021/04/09 04:46:36;;;;;;;12.10;7.70;;;0.90;1.00;;;;;;5014811;28;20045;-70
2021/04/09 04:49:03;;;;;;;17.23;8.07;;;0.90;1.00;;;;;;5012103;28;20057;-72
2021/04/09 04:51:30;;;;;;;14.68;7.78;;;0.90;1.00;;;;;;5014381;28;20049;-72
2021/04/09 04:53:57;;;;;;;16.73;7.88;;;0.90;1.00;;;;;;5010552;28;20050;-72
2021/04/09 04:56:24;;;;;;;17.15;8.18;;;0.90;1.00;;;;;;5016111;28;20503;-72
2021/04/09 04:58:52;;;;;;;14.70;7.72;;;1.00;1.00;;;;;;5011853;28;20064;-71
2021/04/09 05:01:18;;;;;;;15.38;7.80;;;1.10;1.00;;;;;;5012645;28;20061;-72
2021/04/09 05:03:45;;;;;;;18.33;8.27;;;1.10;1.00;;;;;;5013200;28;20054;-70
2021/04/09 05:06:12;;;;;;;13.82;8.27;;;1.20;1.00;;;;;;5011374;28;20081;-72
2021/04/09 05:08:39;;;;;;;15.40;8.57;;;1.30;1.00;;;;;;5012064;28;20119;-71
2021/04/09 05:11:06;;;;;;;14.95;8.30;;;1.40;1.00;;;;;;5016626;28;20053;-70
2021/04/09 05:13:33;;;;;;;12.27;8.20;;;1.60;1.00;;;;;;5011006;28;20049;-71
2021/04/09 05:16:01;;;;;;;19.15;9.45;;;1.70;1.00;;;;;;5013893;28;20059;-71
2021/04/09 05:18:27;;;;;;;16.20;9.27;;;2.00;1.00;;;;;;5011432;28;20081;-72
2021/04/09 05:20:54;;;;;;;18.50;8.90;;;2.40;1.00;;;;;;5015367;28;20484;-71
2021/04/09 05:23:21;;;;;;;16.90;9.40;;;2.80;1.00;;;;;;5013267;28;20498;-72
2021/04/09 05:25:48;;;;;;;17.25;9.07;;;3.30;1.00;;;;;;5016281;28;20042;-71
2021/04/09 05:28:18;;;;;;;14.07;8.35;;;3.80;1.00;;;;;;5013696;28;20041;-71
2021/04/09 05:30:45;;;;;;;18.02;7.65;;;3.80;1.00;;;;;;5012016;28;20082;-72
2021/04/09 05:33:12;;;;;;;16.42;8.48;;;4.30;1.00;;;;;;5008549;28;20496;-71
2021/04/09 05:35:39;;;;;;;17.40;8.45;;;4.50;1.00;;;;;;5016377;28;20056;-70
2021/04/09 05:38:06;;;;;;;15.55;7.95;;;3.80;1.00;;;;;;5009409;28;20049;-71
2021/04/09 05:40:33;;;;;;;14.18;8.27;;;3.50;1.00;;;;;;5009274;28;20836;-71
2021/04/09 05:43:02;;;;;;;12.02;8.02;;;3.20;1.00;;;;;;5012131;28;20046;-71
2021/04/09 05:45:29;;;;;;;16.10;8.52;;;3.20;1.00;;;;;;5009381;28;20045;-71
2021/04/09 05:48:02;;;;;;;17.75;8.35;;;3.10;1.00;;;;;;5009724;28;20058;-70
2021/04/09 05:50:30;;;;;;;16.10;8.25;;;3.20;1.00;;;;;;5011612;28;20048;-71
2021/04/09 05:52:57;;;;;;;17.10;7.97;;;3.20;1.00;;;;;;5009892;28;20137;-72
2021/04/09 05:55:24;;;;;;;15.48;8.13;;;3.20;1.00;;;;;;5009399;28;20462;-71
2021/04/09 05:57:50;;;;;;;15.95;8.07;;;3.30;1.00;;;;;;5011029;28;20054;-72
2021/04/09 06:00:19;;;;;;;13.93;8.45;;;3.20;1.00;;;;;;5007758;28;20492;-69
2021/04/09 06:02:46;;;;;;;12.73;7.45;;;3.30;1.00;;;;;;5015284;28;20052;-72
2021/04/09 06:05:14;;;;;;;17.67;7.82;;;3.30;1.00;;;;;;5008703;28;20132;-71
2021/04/09 06:07:41;;;;;;;12.57;7.32;;;3.60;1.00;;;;;;5008429;28;20057;-71
2021/04/09 06:10:09;;;;;;;28.27;8.20;;;3.60;1.00;;;;;;5009214;28;20052;-71
2021/04/09 06:12:39;;;;;;;16.75;7.82;;;3.50;1.00;;;;;;5011049;28;20056;-72
2021/04/09 06:15:08;;;;;;;15.73;7.30;;;3.60;1.00;;;;;;5012478;28;20045;-71
2021/04/09 06:17:35;;;;;;;16.98;7.63;;;3.60;1.00;;;;;;5006800;28;20062;-72
2021/04/09 06:20:04;;;;;;;14.63;7.07;;;3.70;1.00;;;;;;5011483;28;20050;-72
2021/04/09 06:22:31;;;;;;;14.07;7.18;;;3.80;1.00;;;;;;5008474;28;20049;-72
2021/04/09 06:24:59;;;;;;;17.92;7.82;;;3.90;1.00;;;;;;5009445;28;20048;-73
2021/04/09 06:27:26;;;;;;;12.80;7.18;;;3.90;1.00;;;;;;5004454;28;20716;-73
2021/04/09 06:29:54;;;;;;;14.13;7.03;;;4.10;1.00;;;;;;5011071;28;20104;-72
2021/04/09 06:32:21;;;;;;;12.85;7.28;;;4.10;1.00;;;;;;5010814;28;20046;-72
2021/04/09 06:34:48;;;;;;;13.98;6.93;;;4.10;1.00;;;;;;5016347;28;20056;-72
2021/04/09 06:37:15;;;;;;;13.23;6.75;;;4.10;1.00;;;;;;5010285;28;20042;-72
2021/04/09 06:39:42;;;;;;;18.50;7.63;;;4.30;1.00;;;;;;5016780;28;20054;-72
2021/04/09 06:42:10;;;;;;;14.68;7.65;;;4.30;1.00;;;;;;5013636;28;20053;-73
2021/04/09 06:44:39;;;;;;;11.93;6.53;;;4.60;1.00;;;;;;5013672;28;20127;-73
2021/04/09 06:47:07;;;;;;;13.32;6.82;;;4.70;1.00;;;;;;5014167;28;20073;-72
2021/04/09 06:49:34;;;;;;;12.70;7.07;;;4.90;1.00;;;;;;5012220;28;20061;-73
2021/04/09 06:52:01;;;;;;;11.80;6.80;;;4.90;1.00;;;;;;5014668;28;20049;-72
2021/04/09 06:54:29;;;;;;;15.15;7.25;;;4.90;1.00;;;;;;5016484;28;20041;-72
2021/04/09 06:56:58;;;;;;;11.05;7.00;;;5.20;1.00;;;;;;5011074;28;20152;-72
2021/04/09 06:59:30;;;;;;;12.50;7.65;;;5.20;1.00;;;;;;5015259;28;20416;-73
2021/04/09 07:01:57;;;;;;;12.93;7.60;;;5.40;1.00;;;;;;5012249;28;20053;-72
2021/04/09 07:04:25;;;;;;;11.95;6.95;;;5.50;1.00;;;;;;5013894;28;20377;-73
2021/04/09 07:06:52;;;;;;;11.80;7.75;;;5.70;1.00;;;;;;5015321;28;20081;-73
2021/04/09 07:09:19;;;;;;;12.45;7.15;;;5.70;1.00;;;;;;5014000;28;20067;-72
2021/04/09 07:11:50;;;;;;;18.00;7.50;;;5.80;1.00;;;;;;5014077;28;20042;-72
2021/04/09 07:14:17;;;;;;;14.45;7.70;;;6.00;1.00;;;;;;5015289;28;20623;-73
2021/04/09 07:16:58;;;;;;;14.70;7.13;;;6.00;1.00;;;;;;5013028;28;20475;-73
2021/04/09 07:19:33;;;;;;;15.85;8.13;;;6.10;1.00;;;;;;5011918;28;20556;-73
2021/04/09 07:22:03;;;;;;;12.77;7.25;;;6.10;1.00;;;;;;5010049;28;20145;-73
2021/04/09 07:24:30;;;;;;;25.92;13.88;;;6.30;1.00;;;;;;5012144;28;20500;-73
2021/04/09 07:26:58;;;;;;;22.88;8.90;;;6.40;1.00;;;;;;5012765;28;20057;-73
2021/04/09 07:29:46;;;;;;;19.20;8.38;;;6.30;1.00;;;;;;5013655;28;20042;-73
2021/04/09 07:32:25;;;;;;;12.20;8.15;;;6.60;1.00;;;;;;5013002;28;20054;-73
2021/04/09 07:34:53;;;;;;;15.85;8.45;;;6.60;1.00;;;;;;5012261;28;20053;-73
2021/04/09 07:37:22;;;;;;;13.02;8.15;;;7.00;1.00;;;;;;5009552;28;20547;-73
2021/04/09 07:39:54;;;;;;;13.13;7.55;;;7.20;1.00;;;;;;5013080;28;20053;-73
2021/04/09 07:42:29;;;;;;;15.57;8.27;;;7.20;1.00;;;;;;5009563;28;20060;-73
2021/04/09 07:44:59;;;;;;;17.33;8.45;;;7.30;1.00;;;;;;5013757;28;20103;-72
2021/04/09 07:47:28;;;;;;;13.88;8.07;;;7.40;1.00;;;;;;5008716;28;20053;-72
2021/04/09 07:50:08;;;;;;;12.73;7.30;;;7.50;1.00;;;;;;5015013;28;20045;-73
2021/04/09 07:52:40;;;;;;;15.98;7.85;;;7.60;1.00;;;;;;5007064;28;20053;-75
2021/04/09 07:55:16;;;;;;;15.77;8.23;;;7.90;1.00;;;;;;5012378;28;20068;-74
2021/04/09 07:57:43;;;;;;;14.38;7.93;;;8.10;1.00;;;;;;5009790;28;20068;-75
2021/04/09 08:00:18;;;;;;;14.30;7.88;;;8.10;1.00;;;;;;5012788;28;20052;-73
2021/04/09 08:02:46;;;;;;;18.05;7.53;;;8.30;1.00;;;;;;5011648;28;20523;-74
2021/04/09 08:05:16;;;;;;;13.00;7.32;;;8.30;1.00;;;;;;5013015;28;20053;-73
2021/04/09 08:07:43;;;;;;;12.38;8.20;;;8.70;1.00;;;;;;5011194;28;20056;-72
2021/04/09 08:10:12;;;;;;;12.07;8.00;;;8.90;1.00;;;;;;5011647;28;20079;-73
2021/04/09 08:12:39;;;;;;;15.00;7.45;;;9.00;1.00;;;;;;5011069;28;20053;-73
2021/04/09 08:15:18;;;;;;;15.05;7.68;;;9.10;1.00;;;;;;5013026;28;20045;-72
2021/04/09 08:18:00;;;;;;;17.20;7.35;;;9.20;1.00;;;;;;5007587;28;20042;-73
2021/04/09 08:20:29;;;;;;;9.30;6.97;;;9.30;1.00;;;;;;5013037;28;20562;-72
2021/04/09 08:23:01;;;;;;;10.98;6.53;;;9.30;1.00;;;;;;5011330;28;20046;-72
2021/04/09 08:25:29;;;;;;;14.07;6.63;;;9.40;1.00;;;;;;5009805;28;20042;-74
2021/04/09 08:27:59;;;;;;;17.20;7.80;;;9.80;1.00;;;;;;5010776;28;20484;-73
2021/04/09 08:30:28;;;;;;;14.00;7.88;;;9.90;1.00;;;;;;5011916;28;20046;-74
2021/04/09 08:32:59;;;;;;;12.52;7.00;;;9.90;1.00;;;;;;5010368;28;20088;-73
2021/04/09 08:35:27;;;;;;;12.35;7.32;;;10.10;1.00;;;;;;5010377;28;20123;-75
2021/04/09 08:37:55;;;;;;;11.73;6.80;;;10.20;1.00;;;;;;5009101;28;20556;-74
2021/04/09 08:40:23;;;;;;;10.20;6.55;;;10.10;1.00;;;;;;5010971;28;20053;-71
2021/04/09 08:42:50;;;;;;;12.27;6.38;;;10.30;1.00;;;;;;5010077;28;20408;-71
2021/04/09 08:45:18;;;;;;;13.63;6.70;;;10.40;1.00;;;;;;5012392;28;20499;-73
2021/04/09 08:47:47;;;;;;;12.27;6.95;;;10.30;1.00;;;;;;5009187;28;20050;-71
2021/04/09 08:50:16;;;;;;;13.25;7.07;;;10.50;1.00;;;;;;5012091;28;20042;-70
2021/04/09 08:52:45;;;;;;;10.95;6.05;;;10.70;1.00;;;;;;5009773;28;20045;-72
2021/04/09 08:55:14;;;;;;;11.68;6.25;;;10.90;1.00;;;;;;5013584;28;20046;-72
2021/04/09 08:57:44;;;;;;;13.05;6.20;;;11.00;1.00;;;;;;5010078;28;20623;-72
2021/04/09 09:00:17;;;;;;;11.90;6.50;;;11.20;1.00;;;;;;5008955;28;20500;-71
2021/04/09 09:02:47;;;;;;;13.48;6.18;;;11.50;1.00;;;;;;5007429;28;20046;-72
2021/04/09 09:05:17;;;;;;;11.00;6.07;;;11.60;1.00;;;;;;5014818;28;20056;-72
2021/04/09 09:08:05;;;;;;;8.85;5.22;;;11.80;1.00;;;;;;5006492;28;20046;-73
2021/04/09 09:10:56;;;;;;;9.07;5.35;;;12.00;1.00;;;;;;5012797;28;20535;-71
2021/04/09 09:13:40;;;;;;;19.38;6.18;;;12.10;1.00;;;;;;5009235;28;20480;-71
2021/04/09 09:16:14;;;;;;;12.13;5.47;;;11.90;1.00;;;;;;5010408;28;20053;-73
2021/04/09 09:18:49;;;;;;;9.30;5.22;;;12.20;1.00;;;;;;5006854;28;20218;-74
2021/04/09 09:21:28;;;;;;;11.02;5.20;;;12.40;1.00;;;;;;5011183;28;20067;-73
2021/04/09 09:23:57;;;;;;;8.60;5.35;;;12.40;1.00;;;;;;5010361;28;20145;-72
2021/04/09 09:26:29;;;;;;;9.30;5.00;;;12.20;1.00;;;;;;5013336;28;20041;-73
2021/04/09 09:29:24;;;;;;;11.57;5.57;;;12.50;1.00;;;;;;5009628;28;20061;-72
2021/04/09 09:31:59;;;;;;;9.68;5.45;;;12.40;1.00;;;;;;4959317;28;20221;-71
2021/04/09 09:34:47;;;;;;;9.73;6.13;;;12.60;1.00;;;;;;5011648;28;20100;-72
2021/04/09 09:37:17;;;;;;;8.80;5.35;;;12.50;1.00;;;;;;5010459;28;20065;-72
2021/04/09 09:39:51;;;;;;;12.85;6.00;;;12.60;1.00;;;;;;5009720;28;20077;-72
2021/04/09 09:42:43;;;;;;;9.88;5.10;;;12.60;1.00;;;;;;5008857;28;20046;-72
2021/04/09 09:45:12;;;;;;;11.73;5.28;;;12.70;1.00;;;;;;5011086;28;20045;-72
2021/04/09 09:47:41;;;;;;;13.13;5.95;;;12.80;1.00;;;;;;5009324;28;20403;-72
2021/04/09 09:50:20;;;;;;;10.38;5.60;;;12.50;1.00;;;;;;5008175;28;20547;-73
2021/04/09 09:52:55;;;;;;;9.25;6.32;;;12.70;1.00;;;;;;5011927;28;20053;-74
2021/04/09 09:55:25;;;;;;;8.90;4.47;;;12.90;1.00;;;;;;5013399;28;20048;-74
2021/04/09 09:57:54;;;;;;;10.13;4.65;;;13.00;1.00;;;;;;5007506;28;20046;-73
2021/04/09 10:00:33;;;;;;;5.43;3.65;;;12.90;1.00;;;;;;5008364;28;20069;-72
2021/04/09 10:03:14;;;;;;;6.70;3.40;;;12.80;1.00;;;;;;5007873;28;20057;-74
2021/04/09 10:05:43;;;;;;;5.78;3.03;;;12.70;1.00;;;;;;5013585;28;20087;-72
2021/04/09 10:08:11;;;;;;;5.95;2.63;;;13.10;1.00;;;;;;5012837;28;20045;-73
2021/04/09 10:10:40;;;;;;;6.63;2.80;;;13.30;1.00;;;;;;5016729;28;20049;-72
2021/04/09 10:13:24;;;;;;;7.75;3.13;;;13.20;1.00;;;;;;5016500;28;20128;-73
2021/04/09 10:15:54;;;;;;;4.00;2.80;;;13.30;1.00;;;;;;5014415;28;20053;-73
2021/04/09 10:18:22;;;;;;;6.30;3.20;;;13.50;1.00;;;;;;5012764;28;20046;-74
2021/04/09 10:20:51;;;;;;;4.68;2.88;;;13.30;1.00;;;;;;5010991;28;20042;-74
2021/04/09 10:23:25;;;;;;;6.60;2.70;;;13.30;1.00;;;;;;5014497;28;20052;-74
2021/04/09 10:25:53;;;;;;;;;;;13.60;1.00;;;;;;5014553;28;20058;-74
2021/04/09 10:28:20;;;;;;;8.68;3.33;;;13.70;1.00;;;;;;5010640;28;19921;-72
2021/04/09 10:30:52;;;;;;;6.65;3.00;;;13.40;1.00;;;;;;5015671;28;20136;-72
2021/04/09 10:33:35;;;;;;;6.47;3.00;;;13.50;1.00;;;;;;5014781;28;20060;-71
2021/04/09 10:36:14;;;;;;;5.80;2.83;;;13.30;1.00;;;;;;5016604;28;20053;-73
2021/04/09 10:38:42;;;;;;;6.05;3.38;;;13.40;1.00;;;;;;5012224;28;20140;-73
2021/04/09 10:41:22;;;;;;;5.60;2.75;;;13.60;1.00;;;;;;5014684;28;20052;-73
2021/04/09 10:43:54;;;;;;;6.03;2.72;;;13.50;1.00;;;;;;5014653;28;20414;-73
2021/04/09 10:46:21;;;;;;;4.00;2.65;;;13.10;1.00;;;;;;5016651;28;20105;-73
2021/04/09 10:48:48;;;;;;;5.95;2.65;;;13.50;1.00;;;;;;5011985;28;20052;-74
2021/04/09 10:51:15;;;;;;;7.95;3.10;;;13.90;1.00;;;;;;5014729;28;20097;-74
2021/04/09 10:53:43;;;;;;;6.63;3.03;;;13.70;1.00;;;;;;5012005;28;20072;-73
2021/04/09 10:56:11;;;;;;;6.13;3.08;;;13.80;1.00;;;;;;5013499;28;20059;-74
2021/04/09 10:58:40;;;;;;;7.72;2.58;;;13.80;1.00;;;;;;5013128;28;20049;-74
2021/04/09 11:01:08;;;;;;;7.45;2.65;;;13.70;1.00;;;;;;5013138;28;20045;-74
2021/04/09 11:03:58;;;;;;;6.38;3.10;;;13.90;1.00;;;;;;5010957;28;20546;-73
2021/04/09 11:06:25;;;;;;;4.88;3.00;;;14.10;1.00;;;;;;5013294;28;20049;-74
2021/04/09 11:09:01;;;;;;;6.90;3.03;;;13.90;1.00;;;;;;5011191;28;20050;-73
2021/04/09 11:11:34;;;;;;;4.68;2.60;;;14.20;1.00;;;;;;5012664;28;20052;-73
2021/04/09 11:14:07;;;;;;;5.90;3.15;;;14.10;1.00;;;;;;5011154;28;20521;-74
2021/04/09 11:16:48;;;;;;;6.75;3.33;;;13.60;1.00;;;;;;5011682;28;20060;-74
2021/04/09 11:19:32;;;;;;;6.93;2.60;;;13.80;1.00;;;;;;5012085;28;20060;-73
2021/04/09 11:22:02;;;;;;;3.78;2.28;;;13.90;1.00;;;;;;5017660;28;20086;-73
2021/04/09 11:24:33;;;;;;;6.28;3.13;;;14.20;1.00;;;;;;5018722;28;20604;-74
2021/04/09 11:27:02;;;;;;;4.00;2.70;;;14.20;1.00;;;;;;5009967;28;20080;-73
2021/04/09 11:29:31;;;;;;;4.00;2.50;;;14.10;1.00;;;;;;5010864;28;20064;-73
2021/04/09 11:32:13;;;;;;;3.65;2.35;;;14.30;1.00;;;;;;5011133;28;20060;-72
2021/04/09 11:34:42;;;;;;;4.47;2.70;;;14.30;1.00;;;;;;5014840;28;20060;-73
2021/04/09 11:37:10;;;;;;;5.05;2.40;;;14.40;1.00;;;;;;5016825;28;20136;-73
2021/04/09 11:39:50;;;;;;;3.55;2.20;;;14.30;1.00;;;;;;5017582;28;20058;-73
2021/04/09 11:42:33;;;;;;;6.30;2.80;;;14.50;1.00;;;;;;5017916;28;20422;-73
2021/04/09 11:45:01;;;;;;;4.38;2.42;;;14.80;1.00;;;;;;5013787;28;20054;-73
2021/04/09 11:47:33;;;;;;;4.13;2.63;;;14.50;1.00;;;;;;5012994;28;20132;-73
2021/04/09 11:50:03;;;;;;;5.30;2.70;;;14.70;1.00;;;;;;5015549;28;20099;-73
2021/04/09 11:52:30;;;;;;;7.28;2.40;;;14.90;1.00;;;;;;5010478;28;20041;-74
2021/04/09 11:54:58;;;;;;;4.55;2.28;;;14.90;1.00;;;;;;5018417;28;20088;-73
2021/04/09 11:57:27;;;;;;;4.40;2.38;;;14.90;1.00;;;;;;5017186;28;20069;-73
2021/04/09 11:59:54;;;;;;;2.83;1.88;;;14.90;1.00;;;;;;5010576;28;20057;-74
2021/04/09 12:02:26;;;;;;;3.75;2.28;;;14.90;1.00;;;;;;5014494;28;20357;-72
2021/04/09 12:04:54;;;;;;;5.30;2.30;;;15.00;1.00;;;;;;5013130;28;20558;-75
2021/04/09 12:07:23;;;;;;;3.55;2.25;;;15.10;1.00;;;;;;5011937;28;20057;-73
2021/04/09 12:09:52;;;;;;;3.85;2.13;;;15.30;1.00;;;;;;5014114;28;20045;-73
2021/04/09 12:12:22;;;;;;;3.88;1.90;;;15.50;1.00;;;;;;5012818;28;20057;-72
2021/04/09 12:14:51;;;;;;;5.90;2.65;;;15.40;1.00;;;;;;5014036;28;20057;-72
2021/04/09 12:17:21;;;;;;;9.98;2.50;;;15.30;1.00;;;;;;5015096;28;20042;-73
2021/04/09 12:19:50;;;;;;;2.97;2.13;;;15.60;1.00;;;;;;5010350;28;20065;-73
2021/04/09 12:22:18;;;;;;;5.63;2.00;;;15.30;1.00;;;;;;5013543;28;20056;-74
2021/04/09 12:24:45;;;;;;;3.45;2.10;;;15.30;1.00;;;;;;5011847;28;20046;-74
2021/04/09 12:27:12;;;;;;;3.72;2.35;;;15.50;1.00;;;;;;5007580;28;20132;-72
2021/04/09 12:29:40;;;;;;;4.07;2.35;;;15.30;1.00;;;;;;5011678;28;20736;-72
2021/04/09 12:32:09;;;;;;;5.28;2.65;;;15.10;1.00;;;;;;5010600;28;20849;-74
2021/04/09 12:34:37;;;;;;;4.20;2.40;;;14.50;1.00;;;;;;5012452;28;20089;-72
2021/04/09 12:37:07;;;;;;;6.80;2.63;;;15.40;1.00;;;;;;5011715;28;20140;-73
2021/04/09 12:39:34;;;;;;;5.68;2.47;;;14.90;1.00;;;;;;5012855;28;20054;-74
2021/04/09 12:42:02;;;;;;;6.65;2.75;;;15.40;1.00;;;;;;5009741;28;20052;-74
2021/04/09 12:44:29;;;;;;;5.15;2.50;;;15.20;1.00;;;;;;5012940;28;20046;-74
2021/04/09 12:46:57;;;;;;;7.38;2.20;;;15.40;1.00;;;;;;5006590;28;20753;-73
2021/04/09 12:49:27;;;;;;;5.90;2.75;;;15.10;1.00;;;;;;5009794;28;20054;-73
2021/04/09 12:51:54;;;;;;;4.72;2.38;;;15.80;1.00;;;;;;5010413;28;20042;-73
2021/04/09 12:54:23;;;;;;;6.65;2.25;;;15.20;1.00;;;;;;5009091;28;20424;-73
2021/04/09 12:56:50;;;;;;;5.75;2.45;;;15.70;1.00;;;;;;5007081;28;20056;-74
2021/04/09 12:59:25;;;;;;;6.15;3.10;;;15.80;1.00;;;;;;5010192;28;20061;-73
2021/04/09 13:01:52;;;;;;;5.65;2.63;;;15.50;1.00;;;;;;5009730;28;20049;-74
2021/04/09 13:04:20;;;;;;;4.35;2.80;;;15.60;1.00;;;;;;5010806;28;20074;-73
2021/04/09 13:06:47;;;;;;;4.60;2.45;;;15.40;1.00;;;;;;5006351;28;20104;-73
2021/04/09 13:09:14;;;;;;;7.32;3.03;;;14.80;1.00;;;;;;5012410;28;20052;-75